Het weer levert geen direct gevaar op.    Er zijn geen waarschuwingen afgegeven.

Regen radar Meer informatie rain snow radar


Bezoek onze andere website:

Template documentation
and downloads

And another site

Forum Leuven-template

EUWEATHER.EU

Verwachtingen Meteociel


U vindt ons ook hier:

Het Weer Aktueel

UK Metoffice

European Weather Network

WeatherCloud

Weather Underground

Benelux Weer Netwerk

AWEKAS

WeatherlinkIP

HAMweather, WeatherForYou, PWS Weather

Wetter.com



METAR rapporten vliegvelden

   
EBAW - Antwerp
Gewijzigd: 21-02-2020 15:20
Gedeeltelijk bewolkt  
Gedeeltelijk bewolkt  
   Wind: ZW 24.1 km/h
Wind: ZW 24.1 km/h
Temperatuur: 9°C
Voelt als: 6°C
Dauwpunt: 3°C
Vochtigheid: 66%
Barometer: 1025 hPa
Bewolking: Gedeeltelijk bewolkt
Zicht: meer dan 10 km
Bewolking: Gedeeltelijk bewolkt 2500 ft
EBAW 211420Z 22013KT 190V260 9999 SCT025 09/03 Q1025 NOSIG
EBLG - Li├Ęge
Gewijzigd: 21-02-2020 15:20
Grotendeels bewolkt  
Grotendeels bewolkt  
   Wind: ZW 22.2 km/h
Wind: ZW 22.2 km/h
Temperatuur: 8°C
Voelt als: 4°C
Dauwpunt: 2°C
Vochtigheid: 66%
Barometer: 1026 hPa
Bewolking: Grotendeels bewolkt
Zicht: meer dan 10 km
Bewolking: Grotendeels bewolkt 2700 ft
EBLG 211420Z 23012KT 9999 BKN027 08/02 Q1026 NOSIG
EBCV - Mons/Bergen
Gewijzigd: 21-02-2020 15:25
Grotendeels bewolkt  
Grotendeels bewolkt  
   Wind: ZW 29.6 km/h
Wind: ZW 29.6 km/h
Temperatuur: 9°C
Voelt als: 6°C
Dauwpunt: 3°C
Vochtigheid: 66%
Barometer: 1026 hPa
Bewolking: Grotendeels bewolkt
Zicht: meer dan 10 km
Bewolking: Grotendeels bewolkt 3200 ft
EBCV 211425Z AUTO 22016KT 9999 BKN032/// 09/03 Q1026 BLU
EHBK - Maastricht
Gewijzigd: 21-02-2020 15:25
Bewolking  
Bewolking  
   Wind: ZW 35.2 km/h
Wind: ZW 35.2 km/h
Temperatuur: 9°C
Voelt als: 5°C
Dauwpunt: 3°C
Vochtigheid: 66%
Barometer: 1026 hPa
Bewolking: Bewolking
Zicht: meer dan 10 km
Bewolking: Gedeeltelijk bewolkt 2700 ft,
Grotendeels bewolkt 3100 ft,
Bewolking 3500 ft
EHBK 211425Z AUTO 23019KT 200V260 9999 SCT027 BKN031 OVC035 09/03 Q1026 NOSIG
ELLX - Luxemburg
Gewijzigd: 21-02-2020 15:20
Gedeeltelijk bewolkt  
Gedeeltelijk bewolkt  
   Wind: WZW 27.8 km/h
Wind: WZW 27.8 km/h
Temperatuur: 6°C
Voelt als: 2°C
Dauwpunt: 0°C
Vochtigheid: 66%
Barometer: 1028 hPa
Bewolking: Gedeeltelijk bewolkt
Zicht: meer dan 10 km
Bewolking: Licht bewolkt 2800 ft,
Gedeeltelijk bewolkt 3500 ft
ELLX 211420Z 25015KT 9999 FEW028 SCT035 06/M00 Q1028 NOSIG
EBOS - Oostende
Gewijzigd: 21-02-2020 15:20
Gedeeltelijk bewolkt  
Gedeeltelijk bewolkt  
   Wind: ZW 35.2 km/h
Wind: ZW 35.2 km/h
Temperatuur: 9°C
Voelt als: 5°C
Dauwpunt: 5°C
Vochtigheid: 76%
Barometer: 1025 hPa
Bewolking: Gedeeltelijk bewolkt
Zicht: meer dan 10 km
Bewolking: Licht bewolkt 1700 ft,
Gedeeltelijk bewolkt 3500 ft
EBOS 211420Z 22019KT 9999 FEW017 SCT035 09/05 Q1025 TEMPO 22020G30KT

Script ontwikkeld door  Saratoga-weather.org Aangepast voor de template door  Weerstation Leuven

Apparatuur in gebruik:

Weerstation
Davis VP2

Weerprogramma
Meteobridge

Weercomputer
Asus WL -330N3G

Webleverancier
Onecom

Davis VP2

Meteobridge

Asus WL -330N3G

Onecom